Wetterdaten: Woche 05.01.26 - 11.01.26 (KW2)
Datum Zeit Temp. Aussen Temp. o. S. Temp +5cm Feuchte Auss Luftdruck Regen Sonnenschein Regendauer Solar Windböen Empfang
05.01.2026 00:00 -2,3 °C -3,1 °C -5,7 °C 88 % 1011,6 hPa 0,0 l/m² 0,00 h 0,00 h 0 W/m² 13,8 km/h (3 Bft) 94,69 %
05.01.2026 01:00 -2,5 °C -3,3 °C -6,1 °C 87 % 1011,6 hPa 0,0 l/m² 0,00 h 0,00 h 0 W/m² 12,9 km/h (3 Bft) 93,77 %
05.01.2026 02:00 -2,7 °C -3,3 °C -6,1 °C 87 % 1011,6 hPa 0,0 l/m² 0,00 h 0,00 h 0 W/m² 9,0 km/h (2 Bft) 97,49 %
05.01.2026 03:00 -3,0 °C -3,9 °C -6,7 °C 88 % 1011,6 hPa 0,0 l/m² 0,00 h 0,00 h 0 W/m² 6,2 km/h (2 Bft) 97,55 %
05.01.2026 04:00 -3,3 °C -3,9 °C -6,7 °C 88 % 1011,5 hPa 0,0 l/m² 0,00 h 0,00 h 0 W/m² 6,6 km/h (2 Bft) 96,05 %
05.01.2026 05:00 -3,3 °C -3,9 °C -6,7 °C 89 % 1011,5 hPa 0,0 l/m² 0,00 h 0,00 h 0 W/m² 4,7 km/h (1 Bft) 95,60 %
05.01.2026 06:00 -3,0 °C -3,6 °C -6,4 °C 90 % 1011,5 hPa 0,0 l/m² 0,00 h 0,00 h 0 W/m² 1,8 km/h (1 Bft) 94,53 %
05.01.2026 07:00 -2,8 °C -3,3 °C -6,2 °C 90 % 1011,7 hPa 0,0 l/m² 0,00 h 0,00 h 0 W/m² 0,5 km/h (0 Bft) 96,47 %
05.01.2026 08:00 -2,4 °C -2,7 °C -5,6 °C 90 % 1012,1 hPa 0,0 l/m² 0,00 h 0,00 h 6 W/m² 7,3 km/h (2 Bft) 96,81 %
05.01.2026 09:00 -2,0 °C -2,2 °C -5,4 °C 88 % 1012,3 hPa 0,0 l/m² 0,00 h 0,00 h 18 W/m² 12,1 km/h (2 Bft) 96,73 %
05.01.2026 10:00 -1,6 °C -1,7 °C -4,9 °C 87 % 1012,3 hPa 0,0 l/m² 0,00 h 0,00 h 56 W/m² 12,4 km/h (3 Bft) 96,95 %
05.01.2026 11:00 -1,3 °C -1,7 °C -4,9 °C 86 % 1012,2 hPa 0,0 l/m² 0,00 h 0,00 h 56 W/m² 14,5 km/h (3 Bft) 95,96 %
05.01.2026 12:00 -1,2 °C -1,4 °C -4,6 °C 86 % 1011,9 hPa 0,0 l/m² 0,00 h 0,00 h 69 W/m² 14,4 km/h (3 Bft) 98,40 %
05.01.2026 13:00 -0,8 °C -1,0 °C -4,3 °C 86 % 1011,3 hPa 0,0 l/m² 0,00 h 0,00 h 50 W/m² 11,1 km/h (2 Bft) 97,34 %
05.01.2026 14:00 -0,1 °C -0,3 °C -3,8 °C 88 % 1011,0 hPa 0,0 l/m² 0,00 h 0,00 h 36 W/m² 8,2 km/h (2 Bft) 96,41 %
05.01.2026 15:00 0,2 °C -0,5 °C -3,8 °C 89 % 1011,1 hPa 0,0 l/m² 0,00 h 0,00 h 17 W/m² 16,3 km/h (3 Bft) 97,50 %
05.01.2026 16:00 -0,3 °C -1,1 °C -4,4 °C 93 % 1011,3 hPa 0,0 l/m² 0,00 h 0,00 h 6 W/m² 9,7 km/h (2 Bft) 96,99 %
05.01.2026 17:00 -0,6 °C -1,1 °C -4,4 °C 95 % 1011,7 hPa 0,0 l/m² 0,00 h 0,00 h 0 W/m² 8,5 km/h (2 Bft) 96,70 %
05.01.2026 18:00 -0,7 °C -1,1 °C -4,4 °C 95 % 1012,0 hPa 0,0 l/m² 0,00 h 0,00 h 0 W/m² 7,7 km/h (2 Bft) 98,75 %
05.01.2026 19:00 -1,1 °C -1,7 °C -5,0 °C 94 % 1012,4 hPa 0,0 l/m² 0,00 h 0,00 h 0 W/m² 6,9 km/h (2 Bft) 96,46 %
05.01.2026 20:00 -1,3 °C -1,7 °C -5,0 °C 93 % 1012,6 hPa 0,0 l/m² 0,00 h 0,00 h 0 W/m² 14,4 km/h (3 Bft) 96,02 %
05.01.2026 21:00 -1,6 °C -2,1 °C -5,4 °C 92 % 1012,7 hPa 0,0 l/m² 0,00 h 0,00 h 0 W/m² 13,2 km/h (3 Bft) 98,53 %
05.01.2026 22:00 -1,8 °C -2,2 °C -5,6 °C 92 % 1012,8 hPa 0,0 l/m² 0,00 h 0,00 h 0 W/m² 13,6 km/h (3 Bft) 96,36 %
05.01.2026 23:00 -1,7 °C -2,2 °C -5,2 °C 91 % 1013,2 hPa 0,0 l/m² 0,00 h 0,00 h 0 W/m² 8,1 km/h (2 Bft) 96,34 %
06.01.2026 00:00 -1,6 °C -2,2 °C -5,0 °C 91 % 1013,2 hPa 0,0 l/m² 0,00 h 0,00 h 0 W/m² 10,1 km/h (2 Bft) 97,97 %
06.01.2026 01:00 -1,4 °C -1,8 °C -5,0 °C 91 % 1013,2 hPa 0,0 l/m² 0,00 h 0,00 h 0 W/m² 8,9 km/h (2 Bft) 98,31 %
06.01.2026 02:00 -1,2 °C -1,7 °C -5,0 °C 91 % 1013,4 hPa 0,0 l/m² 0,00 h 0,00 h 0 W/m² 5,4 km/h (1 Bft) 95,57 %
06.01.2026 03:00 -1,2 °C -1,7 °C -5,0 °C 91 % 1013,5 hPa 0,0 l/m² 0,00 h 0,00 h 0 W/m² 6,3 km/h (2 Bft) 97,65 %
06.01.2026 04:00 -1,1 °C -1,7 °C -4,8 °C 92 % 1013,9 hPa 0,0 l/m² 0,00 h 0,00 h 0 W/m² 3,9 km/h (1 Bft) 95,29 %
06.01.2026 05:00 -1,0 °C -1,7 °C -4,4 °C 93 % 1014,4 hPa 0,0 l/m² 0,00 h 0,00 h 0 W/m² 1,0 km/h (0 Bft) 96,65 %
06.01.2026 06:00 -0,8 °C -1,7 °C -4,4 °C 94 % 1014,8 hPa 0,0 l/m² 0,00 h 0,00 h 0 W/m² 0,6 km/h (0 Bft) 98,34 %
06.01.2026 07:00 -0,7 °C -1,1 °C -4,4 °C 95 % 1015,3 hPa 0,0 l/m² 0,00 h 0,00 h 0 W/m² 2,0 km/h (1 Bft) 97,41 %
06.01.2026 08:00 -0,8 °C -1,4 °C -4,4 °C 95 % 1015,8 hPa 0,0 l/m² 0,00 h 0,00 h 0 W/m² 2,3 km/h (1 Bft) 98,30 %
06.01.2026 09:00 -0,8 °C -1,0 °C -4,1 °C 95 % 1016,6 hPa 0,0 l/m² 0,00 h 0,00 h 13 W/m² 1,9 km/h (1 Bft) 96,08 %
06.01.2026 10:00 -0,4 °C -0,4 °C -3,7 °C 95 % 1017,2 hPa 0,0 l/m² 0,00 h 0,00 h 28 W/m² 4,2 km/h (1 Bft) 98,36 %
06.01.2026 11:00 -0,2 °C 0,3 °C -3,2 °C 95 % 1017,5 hPa 0,0 l/m² 0,00 h 0,00 h 60 W/m² 5,3 km/h (1 Bft) 94,01 %
06.01.2026 12:00 0,0 °C 0,6 °C -2,8 °C 93 % 1017,2 hPa 0,2 l/m² 0,00 h 0,00 h 93 W/m² 6,8 km/h (2 Bft) 96,13 %
06.01.2026 13:00 0,5 °C 0,8 °C -2,7 °C 93 % 1016,8 hPa 0,0 l/m² 0,00 h 0,00 h 96 W/m² 6,4 km/h (2 Bft) 98,98 %
06.01.2026 14:00 0,8 °C 1,1 °C -2,3 °C 92 % 1016,5 hPa 0,2 l/m² 0,00 h 0,00 h 85 W/m² 5,7 km/h (1 Bft) 96,40 %
06.01.2026 15:00 1,0 °C 0,8 °C -2,5 °C 92 % 1016,4 hPa 0,2 l/m² 0,00 h 0,00 h 41 W/m² 7,1 km/h (2 Bft) 97,38 %
06.01.2026 16:00 0,5 °C -0,2 °C -3,1 °C 92 % 1016,5 hPa 0,2 l/m² 0,03 h 0,00 h 15 W/m² 8,8 km/h (2 Bft) 98,45 %
06.01.2026 17:00 -0,2 °C -1,2 °C -4,1 °C 93 % 1016,7 hPa 0,0 l/m² 0,00 h 0,00 h 0 W/m² 9,2 km/h (2 Bft) 97,27 %
06.01.2026 18:00 -0,7 °C -1,6 °C -4,4 °C 94 % 1016,9 hPa 0,0 l/m² 0,00 h 0,00 h 0 W/m² 9,9 km/h (2 Bft) 95,84 %
06.01.2026 19:00 -1,2 °C -2,1 °C -4,8 °C 94 % 1017,3 hPa 0,0 l/m² 0,00 h 0,00 h 0 W/m² 10,8 km/h (2 Bft) 98,08 %
06.01.2026 20:00 -1,7 °C -2,5 °C -5,2 °C 94 % 1017,2 hPa 0,0 l/m² 0,00 h 0,00 h 0 W/m² 7,1 km/h (2 Bft) 99,13 %
06.01.2026 21:00 -2,5 °C -3,7 °C -5,9 °C 94 % 1016,8 hPa 0,0 l/m² 0,00 h 0,00 h 0 W/m² 4,8 km/h (1 Bft) 93,23 %
06.01.2026 22:00 -3,2 °C -4,1 °C -6,6 °C 94 % 1016,5 hPa 0,0 l/m² 0,00 h 0,00 h 0 W/m² 6,3 km/h (2 Bft) 97,88 %
06.01.2026 23:00 -3,8 °C -4,4 °C -6,7 °C 94 % 1016,0 hPa 0,0 l/m² 0,00 h 0,00 h 0 W/m² 5,2 km/h (1 Bft) 97,76 %
07.01.2026 00:00 -3,9 °C -4,5 °C -6,9 °C 94 % 1015,4 hPa 0,0 l/m² 0,00 h 0,00 h 0 W/m² 5,8 km/h (2 Bft) 97,26 %
07.01.2026 01:00 -4,3 °C -4,9 °C -7,2 °C 94 % 1014,7 hPa 0,0 l/m² 0,00 h 0,00 h 0 W/m² 8,6 km/h (2 Bft) 94,79 %
07.01.2026 02:00 -4,1 °C -4,4 °C -7,0 °C 94 % 1014,0 hPa 0,0 l/m² 0,00 h 0,00 h 0 W/m² 12,5 km/h (3 Bft) 96,35 %
07.01.2026 03:00 -3,6 °C -3,8 °C -6,5 °C 93 % 1013,6 hPa 0,0 l/m² 0,00 h 0,00 h 0 W/m² 11,8 km/h (2 Bft) 97,90 %
07.01.2026 04:00 -3,0 °C -3,4 °C -6,1 °C 93 % 1013,0 hPa 0,0 l/m² 0,00 h 0,00 h 0 W/m² 12,8 km/h (3 Bft) 96,36 %
07.01.2026 05:00 -2,8 °C -3,3 °C -6,1 °C 92 % 1012,4 hPa 0,0 l/m² 0,00 h 0,00 h 0 W/m² 17,0 km/h (3 Bft) 98,89 %
07.01.2026 06:00 -2,9 °C -3,3 °C -6,1 °C 91 % 1011,7 hPa 0,0 l/m² 0,00 h 0,00 h 0 W/m² 18,6 km/h (3 Bft) 94,50 %
07.01.2026 07:00 -2,9 °C -3,3 °C -6,1 °C 91 % 1011,1 hPa 0,0 l/m² 0,00 h 0,00 h 0 W/m² 19,7 km/h (3 Bft) 97,19 %
07.01.2026 08:00 -2,6 °C -3,1 °C -5,9 °C 91 % 1010,5 hPa 0,0 l/m² 0,00 h 0,00 h 8 W/m² 20,5 km/h (4 Bft) 96,60 %
07.01.2026 09:00 -2,0 °C -2,1 °C -5,3 °C 90 % 1010,1 hPa 0,0 l/m² 0,00 h 0,00 h 42 W/m² 21,9 km/h (4 Bft) 98,57 %
07.01.2026 10:00 -0,8 °C -0,6 °C -4,2 °C 88 % 1009,6 hPa 0,0 l/m² 0,57 h 0,00 h 125 W/m² 22,2 km/h (4 Bft) 96,43 %
07.01.2026 11:00 -0,0 °C -0,2 °C -3,6 °C 86 % 1009,1 hPa 0,0 l/m² 0,10 h 0,00 h 79 W/m² 21,0 km/h (4 Bft) 97,34 %
07.01.2026 12:00 -0,4 °C -1,2 °C -4,4 °C 90 % 1008,5 hPa 0,0 l/m² 0,00 h 0,00 h 30 W/m² 19,9 km/h (4 Bft) 96,05 %
07.01.2026 13:00 -1,0 °C -1,5 °C -4,4 °C 94 % 1007,5 hPa 0,0 l/m² 0,00 h 0,00 h 19 W/m² 19,9 km/h (4 Bft) 95,85 %
07.01.2026 14:00 -1,3 °C -1,7 °C -4,8 °C 95 % 1007,1 hPa 0,0 l/m² 0,00 h 0,00 h 17 W/m² 20,1 km/h (4 Bft) 97,56 %
07.01.2026 15:00 -1,2 °C -1,4 °C -4,4 °C 96 % 1006,9 hPa 0,0 l/m² 0,00 h 0,00 h 14 W/m² 16,3 km/h (3 Bft) 97,82 %
07.01.2026 16:00 -1,3 °C -1,7 °C -4,9 °C 96 % 1006,6 hPa 0,0 l/m² 0,00 h 0,00 h 5 W/m² 14,7 km/h (3 Bft) 96,64 %
07.01.2026 17:00 -1,4 °C -1,7 °C -5,0 °C 95 % 1006,6 hPa 0,0 l/m² 0,00 h 0,00 h 0 W/m² 12,6 km/h (3 Bft) 98,53 %
07.01.2026 18:00 -1,2 °C -1,7 °C -5,0 °C 95 % 1006,6 hPa 0,0 l/m² 0,00 h 0,00 h 0 W/m² 9,8 km/h (2 Bft) 95,84 %
07.01.2026 19:00 -1,0 °C -1,7 °C -4,5 °C 95 % 1006,7 hPa 0,0 l/m² 0,00 h 0,00 h 0 W/m² 7,8 km/h (2 Bft) 94,32 %
07.01.2026 20:00 -0,6 °C -0,9 °C -4,3 °C 95 % 1006,5 hPa 0,0 l/m² 0,00 h 0,07 h 0 W/m² 13,3 km/h (3 Bft) 98,91 %
07.01.2026 21:00 -0,2 °C -0,6 °C -3,9 °C 95 % 1006,4 hPa 0,0 l/m² 0,00 h 0,00 h 0 W/m² 15,0 km/h (3 Bft) 97,04 %
07.01.2026 22:00 0,1 °C -0,4 °C -3,9 °C 95 % 1006,3 hPa 0,0 l/m² 0,00 h 0,00 h 0 W/m² 10,5 km/h (2 Bft) 96,40 %
07.01.2026 23:00 0,5 °C 0,2 °C -3,9 °C 95 % 1006,5 hPa 0,0 l/m² 0,00 h 0,00 h 0 W/m² 15,9 km/h (3 Bft) 95,29 %
08.01.2026 00:00 0,9 °C 0,6 °C -3,6 °C 94 % 1006,4 hPa 0,0 l/m² 0,00 h 0,00 h 0 W/m² 15,3 km/h (3 Bft) 93,25 %
08.01.2026 01:00 1,1 °C 0,6 °C -3,3 °C 94 % 1006,3 hPa 0,0 l/m² 0,00 h 0,00 h 0 W/m² 16,5 km/h (3 Bft) 96,22 %
08.01.2026 02:00 1,3 °C 0,6 °C -3,3 °C 93 % 1006,5 hPa 0,0 l/m² 0,00 h 0,00 h 0 W/m² 13,4 km/h (3 Bft) 97,26 %
08.01.2026 03:00 1,4 °C 0,8 °C -2,9 °C 93 % 1006,8 hPa 0,0 l/m² 0,00 h 0,00 h 0 W/m² 18,4 km/h (3 Bft) 98,50 %
08.01.2026 04:00 1,4 °C 0,8 °C -2,8 °C 92 % 1006,9 hPa 0,0 l/m² 0,00 h 0,00 h 0 W/m² 22,5 km/h (4 Bft) 96,81 %
08.01.2026 05:00 0,9 °C 0,2 °C -3,3 °C 92 % 1007,1 hPa 0,0 l/m² 0,00 h 0,00 h 0 W/m² 15,6 km/h (3 Bft) 96,20 %
08.01.2026 06:00 0,7 °C 0,0 °C -3,3 °C 93 % 1007,1 hPa 0,0 l/m² 0,00 h 0,00 h 0 W/m² 11,7 km/h (2 Bft) 96,15 %
08.01.2026 07:00 0,6 °C 0,0 °C -3,3 °C 93 % 1007,2 hPa 0,2 l/m² 0,00 h 0,00 h 0 W/m² 6,7 km/h (2 Bft) 98,61 %
08.01.2026 08:00 0,3 °C -0,7 °C -3,8 °C 93 % 1007,4 hPa 0,0 l/m² 0,00 h 0,00 h 8 W/m² 4,6 km/h (1 Bft) 96,30 %
08.01.2026 09:00 -0,3 °C -0,9 °C -3,9 °C 93 % 1007,4 hPa 0,0 l/m² 0,00 h 0,00 h 32 W/m² 3,7 km/h (1 Bft) 95,35 %
08.01.2026 10:00 0,0 °C 0,5 °C -3,2 °C 94 % 1007,5 hPa 0,0 l/m² 0,00 h 0,00 h 81 W/m² 6,2 km/h (2 Bft) 97,80 %
08.01.2026 11:00 0,8 °C 1,5 °C -2,1 °C 95 % 1007,3 hPa 0,0 l/m² 0,00 h 0,00 h 113 W/m² 7,7 km/h (2 Bft) 97,49 %
08.01.2026 12:00 1,8 °C 2,9 °C -1,3 °C 94 % 1006,9 hPa 0,7 l/m² 0,00 h 0,00 h 127 W/m² 3,4 km/h (1 Bft) 97,87 %
08.01.2026 13:00 2,7 °C 3,4 °C -0,9 °C 91 % 1006,2 hPa 1,0 l/m² 0,17 h 0,00 h 126 W/m² 0,1 km/h (0 Bft) 97,03 %
08.01.2026 14:00 3,0 °C 3,2 °C -0,7 °C 90 % 1005,8 hPa 0,7 l/m² 0,00 h 0,00 h 79 W/m² 0,7 km/h (0 Bft) 97,28 %
08.01.2026 15:00 3,2 °C 2,8 °C -1,0 °C 90 % 1005,3 hPa 1,0 l/m² 0,00 h 0,00 h 39 W/m² 0,0 km/h (0 Bft) 96,86 %
08.01.2026 16:00 3,0 °C 2,3 °C -1,1 °C 90 % 1004,6 hPa 0,5 l/m² 0,00 h 0,00 h 15 W/m² 4,2 km/h (1 Bft) 97,60 %
08.01.2026 17:00 2,6 °C 2,2 °C -1,3 °C 92 % 1003,9 hPa 0,5 l/m² 0,00 h 0,00 h 0 W/m² 9,0 km/h (2 Bft) 94,20 %
08.01.2026 18:00 2,4 °C 1,7 °C -1,7 °C 93 % 1002,9 hPa 0,5 l/m² 0,00 h 0,00 h 0 W/m² 14,3 km/h (3 Bft) 94,30 %
08.01.2026 19:00 2,1 °C 1,7 °C -1,7 °C 94 % 1001,8 hPa 0,7 l/m² 0,00 h 0,00 h 0 W/m² 14,7 km/h (3 Bft) 96,03 %
08.01.2026 20:00 2,0 °C 1,2 °C -2,0 °C 95 % 1000,7 hPa 1,2 l/m² 0,00 h 0,67 h 0 W/m² 15,7 km/h (3 Bft) 94,14 %
08.01.2026 21:00 1,8 °C 1,1 °C -2,2 °C 96 % 999,0 hPa 1,0 l/m² 0,00 h 0,52 h 0 W/m² 17,8 km/h (3 Bft) 95,57 %
08.01.2026 22:00 1,7 °C 1,1 °C -2,2 °C 96 % 997,2 hPa 1,7 l/m² 0,00 h 0,93 h 0 W/m² 17,0 km/h (3 Bft) 98,51 %
08.01.2026 23:00 1,7 °C 1,1 °C -1,8 °C 97 % 995,1 hPa 2,9 l/m² 0,00 h 0,97 h 0 W/m² 22,7 km/h (4 Bft) 94,54 %
09.01.2026 00:00 1,9 °C 1,1 °C -1,7 °C 98 % 993,0 hPa 2,4 l/m² 0,00 h 0,90 h 0 W/m² 22,1 km/h (4 Bft) 98,11 %
09.01.2026 01:00 2,2 °C 1,4 °C -1,2 °C 98 % 990,8 hPa 1,4 l/m² 0,00 h 0,10 h 0 W/m² 26,2 km/h (4 Bft) 97,23 %
09.01.2026 02:00 2,5 °C 1,7 °C -1,0 °C 98 % 989,3 hPa 1,7 l/m² 0,00 h 0,23 h 0 W/m² 22,5 km/h (4 Bft) 94,43 %
09.01.2026 03:00 2,7 °C 2,0 °C -0,6 °C 98 % 988,0 hPa 0,0 l/m² 0,00 h 0,03 h 0 W/m² 20,3 km/h (4 Bft) 98,84 %
09.01.2026 04:00 2,8 °C 2,2 °C -0,6 °C 98 % 987,4 hPa 0,0 l/m² 0,00 h 0,00 h 0 W/m² 19,1 km/h (3 Bft) 95,59 %
09.01.2026 05:00 3,0 °C 2,4 °C -0,5 °C 98 % 986,4 hPa 0,0 l/m² 0,00 h 0,00 h 0 W/m² 14,9 km/h (3 Bft) 97,17 %
09.01.2026 06:00 3,4 °C 2,9 °C 0,0 °C 99 % 985,6 hPa 0,0 l/m² 0,00 h 0,07 h 0 W/m² 12,3 km/h (3 Bft) 97,01 %
09.01.2026 07:00 4,0 °C 3,8 °C 0,6 °C 99 % 984,8 hPa 0,2 l/m² 0,00 h 0,17 h 0 W/m² 14,9 km/h (3 Bft) 98,24 %
09.01.2026 08:00 4,3 °C 4,3 °C 0,8 °C 98 % 984,4 hPa 0,0 l/m² 0,00 h 0,00 h 5 W/m² 15,6 km/h (3 Bft) 95,95 %
09.01.2026 09:00 5,0 °C 4,8 °C 1,2 °C 95 % 984,1 hPa 0,0 l/m² 0,00 h 0,00 h 10 W/m² 15,6 km/h (3 Bft) 95,83 %
09.01.2026 10:00 5,2 °C 4,3 °C 0,9 °C 91 % 983,7 hPa 0,5 l/m² 0,00 h 0,33 h 23 W/m² 20,9 km/h (4 Bft) 98,46 %
09.01.2026 11:00 4,9 °C 3,7 °C 0,6 °C 90 % 983,7 hPa 0,5 l/m² 0,00 h 0,60 h 28 W/m² 28,4 km/h (4 Bft) 96,11 %
09.01.2026 12:00 4,2 °C 2,9 °C 0,0 °C 93 % 983,6 hPa 1,9 l/m² 0,00 h 0,77 h 27 W/m² 25,9 km/h (4 Bft) 97,76 %
09.01.2026 13:00 3,7 °C 2,7 °C 0,0 °C 94 % 983,7 hPa 1,0 l/m² 0,00 h 0,57 h 26 W/m² 26,4 km/h (4 Bft) 97,49 %
09.01.2026 14:00 3,3 °C 2,3 °C -0,4 °C 95 % 984,2 hPa 1,4 l/m² 0,00 h 1,00 h 25 W/m² 27,7 km/h (4 Bft) 96,57 %
09.01.2026 15:00 2,9 °C 2,2 °C -0,6 °C 96 % 984,8 hPa 0,5 l/m² 0,00 h 0,20 h 9 W/m² 26,1 km/h (4 Bft) 97,53 %
09.01.2026 16:00 2,8 °C 2,2 °C -0,6 °C 96 % 985,6 hPa 0,0 l/m² 0,00 h 0,00 h 5 W/m² 25,1 km/h (4 Bft) 97,34 %
09.01.2026 17:00 2,7 °C 2,2 °C -1,0 °C 95 % 986,2 hPa 0,0 l/m² 0,00 h 0,00 h 0 W/m² 23,9 km/h (4 Bft) 96,53 %
09.01.2026 18:00 2,6 °C 1,8 °C -1,1 °C 95 % 987,0 hPa 0,2 l/m² 0,00 h 0,30 h 0 W/m² 20,7 km/h (4 Bft) 97,28 %
09.01.2026 19:00 2,4 °C 1,7 °C -1,1 °C 96 % 987,7 hPa 0,7 l/m² 0,00 h 0,17 h 0 W/m² 22,5 km/h (4 Bft) 97,84 %
09.01.2026 20:00 2,2 °C 1,3 °C -1,1 °C 96 % 988,5 hPa 0,0 l/m² 0,00 h 0,03 h 0 W/m² 16,0 km/h (3 Bft) 99,41 %
09.01.2026 21:00 1,7 °C 0,9 °C -1,5 °C 97 % 989,6 hPa 1,0 l/m² 0,00 h 0,97 h 0 W/m² 12,0 km/h (2 Bft) 94,58 %
09.01.2026 22:00 0,9 °C 0,1 °C -2,1 °C 97 % 990,5 hPa 0,7 l/m² 0,00 h 1,00 h 0 W/m² 8,8 km/h (2 Bft) 96,94 %
09.01.2026 23:00 0,7 °C 0,0 °C -2,2 °C 97 % 991,4 hPa 0,5 l/m² 0,00 h 0,37 h 0 W/m² 9,0 km/h (2 Bft) 96,47 %
10.01.2026 00:00 0,6 °C 0,0 °C -2,2 °C 97 % 992,2 hPa 0,2 l/m² 0,00 h 0,45 h 0 W/m² 1,9 km/h (1 Bft) 95,81 %
10.01.2026 01:00 0,6 °C -0,1 °C -2,5 °C 98 % 993,2 hPa 0,0 l/m² 0,00 h 0,60 h 0 W/m² 0,0 km/h (0 Bft) 98,63 %
10.01.2026 02:00 0,4 °C -0,3 °C -2,8 °C 98 % 994,7 hPa 0,0 l/m² 0,00 h 0,50 h 0 W/m² 2,4 km/h (1 Bft) 95,08 %
10.01.2026 03:00 0,1 °C -0,6 °C -2,8 °C 98 % 996,1 hPa 0,0 l/m² 0,00 h 0,07 h 0 W/m² 10,3 km/h (2 Bft) 96,34 %
10.01.2026 04:00 -0,5 °C -1,1 °C -2,9 °C 98 % 997,7 hPa 0,0 l/m² 0,00 h 0,00 h 0 W/m² 11,8 km/h (2 Bft) 94,76 %
10.01.2026 05:00 -1,1 °C -1,7 °C -3,8 °C 98 % 999,2 hPa 0,0 l/m² 0,00 h 0,00 h 0 W/m² 11,3 km/h (2 Bft) 97,88 %
10.01.2026 06:00 -1,7 °C -2,1 °C -4,3 °C 98 % 1000,6 hPa 0,0 l/m² 0,00 h 0,00 h 0 W/m² 10,4 km/h (2 Bft) 96,91 %
10.01.2026 07:00 -1,9 °C -2,2 °C -4,4 °C 98 % 1002,0 hPa 0,0 l/m² 0,00 h 0,00 h 0 W/m² 8,5 km/h (2 Bft) 95,78 %
10.01.2026 08:00 -2,1 °C -2,2 °C -4,5 °C 98 % 1003,6 hPa 0,0 l/m² 0,00 h 0,00 h 0 W/m² 7,2 km/h (2 Bft) 98,71 %
10.01.2026 09:00 -2,3 °C -2,5 °C -5,0 °C 98 % 1005,3 hPa 0,0 l/m² 0,00 h 0,00 h 7 W/m² 8,7 km/h (2 Bft) 95,65 %
10.01.2026 10:00 -2,4 °C -2,3 °C -5,0 °C 97 % 1006,8 hPa 0,0 l/m² 0,00 h 0,00 h 15 W/m² 8,8 km/h (2 Bft) 97,66 %
10.01.2026 11:00 -2,5 °C -2,6 °C -5,0 °C 96 % 1008,2 hPa 0,0 l/m² 0,00 h 0,00 h 16 W/m² 8,5 km/h (2 Bft) 94,96 %
10.01.2026 12:00 -2,5 °C -2,4 °C -5,0 °C 95 % 1009,5 hPa 0,0 l/m² 0,00 h 0,00 h 20 W/m² 8,6 km/h (2 Bft) 99,12 %
10.01.2026 13:00 -2,4 °C -2,3 °C -5,0 °C 94 % 1010,8 hPa 0,0 l/m² 0,00 h 0,00 h 20 W/m² 7,4 km/h (2 Bft) 96,46 %
10.01.2026 14:00 -2,3 °C -2,2 °C -5,0 °C 92 % 1012,0 hPa 0,0 l/m² 0,00 h 0,00 h 13 W/m² 6,2 km/h (2 Bft) 95,65 %
10.01.2026 15:00 -2,3 °C -2,8 °C -5,5 °C 91 % 1013,5 hPa 0,0 l/m² 0,00 h 0,00 h 7 W/m² 9,2 km/h (2 Bft) 97,56 %
10.01.2026 16:00 -2,3 °C -2,8 °C -5,6 °C 90 % 1014,9 hPa 0,0 l/m² 0,00 h 0,00 h 6 W/m² 9,2 km/h (2 Bft) 96,79 %
10.01.2026 17:00 -2,2 °C -2,8 °C -5,6 °C 89 % 1016,2 hPa 0,0 l/m² 0,00 h 0,00 h 0 W/m² 8,5 km/h (2 Bft) 95,69 %
10.01.2026 18:00 -2,2 °C -2,8 °C -5,6 °C 89 % 1017,5 hPa 0,0 l/m² 0,00 h 0,00 h 0 W/m² 7,0 km/h (2 Bft) 97,03 %
10.01.2026 19:00 -2,3 °C -2,8 °C -5,6 °C 88 % 1018,7 hPa 0,0 l/m² 0,00 h 0,00 h 0 W/m² 6,6 km/h (2 Bft) 96,67 %
10.01.2026 20:00 -2,3 °C -2,8 °C -5,6 °C 88 % 1019,8 hPa 0,0 l/m² 0,00 h 0,00 h 0 W/m² 8,8 km/h (2 Bft) 97,50 %
10.01.2026 21:00 -2,6 °C -3,3 °C -6,1 °C 87 % 1020,9 hPa 0,0 l/m² 0,00 h 0,00 h 0 W/m² 8,5 km/h (2 Bft) 96,68 %
10.01.2026 22:00 -3,0 °C -3,8 °C -6,5 °C 87 % 1022,1 hPa 0,0 l/m² 0,00 h 0,00 h 0 W/m² 5,3 km/h (1 Bft) 97,15 %
10.01.2026 23:00 -3,7 °C -4,9 °C -7,3 °C 88 % 1023,0 hPa 0,0 l/m² 0,00 h 0,00 h 0 W/m² 2,3 km/h (1 Bft) 97,60 %
11.01.2026 00:00 -4,4 °C -5,6 °C -7,8 °C 89 % 1023,3 hPa 0,0 l/m² 0,00 h 0,00 h 0 W/m² 4,7 km/h (1 Bft) 96,17 %
11.01.2026 01:00 -5,0 °C -6,4 °C -8,6 °C 89 % 1024,1 hPa 0,0 l/m² 0,00 h 0,00 h 0 W/m² 1,8 km/h (1 Bft) 97,43 %
11.01.2026 02:00 -5,6 °C -6,7 °C -8,9 °C 90 % 1024,4 hPa 0,0 l/m² 0,00 h 0,00 h 0 W/m² 2,3 km/h (1 Bft) 97,30 %
11.01.2026 03:00 -6,1 °C -7,3 °C -9,3 °C 91 % 1025,1 hPa 0,0 l/m² 0,00 h 0,00 h 0 W/m² 0,0 km/h (0 Bft) 96,80 %
11.01.2026 04:00 -6,7 °C -7,7 °C -9,6 °C 91 % 1025,5 hPa 0,0 l/m² 0,00 h 0,00 h 0 W/m² 0,2 km/h (0 Bft) 97,46 %
11.01.2026 05:00 -7,1 °C -7,9 °C -10,0 °C 91 % 1025,7 hPa 0,0 l/m² 0,00 h 0,00 h 0 W/m² 0,1 km/h (0 Bft) 97,43 %
11.01.2026 06:00 -7,4 °C -8,1 °C -10,0 °C 92 % 1025,9 hPa 0,0 l/m² 0,00 h 0,00 h 0 W/m² 0,6 km/h (0 Bft) 97,54 %
11.01.2026 07:00 -6,9 °C -7,2 °C -9,4 °C 92 % 1026,0 hPa 0,0 l/m² 0,00 h 0,00 h 0 W/m² 4,9 km/h (1 Bft) 94,47 %
11.01.2026 08:00 -6,4 °C -6,7 °C -9,2 °C 93 % 1025,7 hPa 0,0 l/m² 0,00 h 0,00 h 5 W/m² 8,3 km/h (2 Bft) 97,43 %
11.01.2026 09:00 -6,2 °C -6,4 °C -8,9 °C 93 % 1026,0 hPa 0,0 l/m² 0,00 h 0,00 h 11 W/m² 10,0 km/h (2 Bft) 97,79 %
11.01.2026 10:00 -5,2 °C -4,7 °C -8,3 °C 93 % 1026,2 hPa 0,0 l/m² 0,00 h 0,00 h 71 W/m² 10,6 km/h (2 Bft) 95,22 %
11.01.2026 11:00 -3,7 °C -2,8 °C -7,2 °C 91 % 1026,0 hPa 0,0 l/m² 0,00 h 0,00 h 78 W/m² 11,3 km/h (2 Bft) 97,79 %
11.01.2026 12:00 -2,7 °C 0,7 °C -6,1 °C 88 % 1025,4 hPa 0,0 l/m² 0,17 h 0,00 h 117 W/m² 15,4 km/h (3 Bft) 96,73 %
11.01.2026 13:00 -1,3 °C 4,2 °C -5,7 °C 85 % 1025,1 hPa 0,2 l/m² 1,00 h 0,00 h 209 W/m² 15,3 km/h (3 Bft) 98,20 %
11.01.2026 14:00 -1,2 °C 0,5 °C -5,6 °C 85 % 1024,8 hPa 0,0 l/m² 0,90 h 0,00 h 153 W/m² 13,2 km/h (3 Bft) 97,47 %
11.01.2026 15:00 -1,4 °C -1,6 °C -5,1 °C 86 % 1024,1 hPa 0,0 l/m² 0,00 h 0,00 h 34 W/m² 10,1 km/h (2 Bft) 95,32 %
11.01.2026 16:00 -1,4 °C -1,7 °C -5,0 °C 89 % 1023,4 hPa 0,0 l/m² 0,00 h 0,00 h 10 W/m² 10,1 km/h (2 Bft) 96,43 %
11.01.2026 17:00 -1,2 °C -1,7 °C -4,9 °C 90 % 1023,2 hPa 0,0 l/m² 0,00 h 0,00 h 0 W/m² 11,9 km/h (2 Bft) 96,98 %
11.01.2026 18:00 -1,0 °C -1,7 °C -4,4 °C 91 % 1022,6 hPa 0,0 l/m² 0,00 h 0,00 h 0 W/m² 14,5 km/h (3 Bft) 97,27 %
11.01.2026 19:00 -1,0 °C -1,7 °C -4,5 °C 92 % 1021,9 hPa 0,0 l/m² 0,00 h 0,00 h 0 W/m² 16,6 km/h (3 Bft) 95,84 %
11.01.2026 20:00 -0,8 °C -1,1 °C -4,4 °C 92 % 1020,9 hPa 0,0 l/m² 0,00 h 0,00 h 0 W/m² 17,1 km/h (3 Bft) 98,97 %
11.01.2026 21:00 -0,5 °C -1,1 °C -4,1 °C 92 % 1020,2 hPa 0,0 l/m² 0,00 h 0,00 h 0 W/m² 22,2 km/h (4 Bft) 95,54 %
11.01.2026 22:00 -0,3 °C -0,8 °C -3,9 °C 92 % 1019,4 hPa 0,0 l/m² 0,00 h 0,00 h 0 W/m² 22,1 km/h (4 Bft) 96,56 %
11.01.2026 23:00 -0,0 °C -0,6 °C -3,9 °C 92 % 1018,3 hPa 0,0 l/m² 0,00 h 0,00 h 0 W/m² 24,9 km/h (4 Bft) 98,71 %
Min-Datum _ 11.01.26 11.01.26 11.01.26 11.01.26 09.01.26 - - - - 05.01.26 08.01.26
_ Min-Zeit 06:26 05:44 04:42 13:40 11:44 - - - - 05:56 00:02
Minimum _ -7,6 °C -8,3 °C -10,0 °C 84 % 983,5 hPa - - - - 0,0 km/h (0 Bft) 11,76 %
Max-Datum _ 09.01.26 11.01.26 09.01.26 09.01.26 11.01.26 08.01.26 11.01.26 09.01.26 11.01.26 09.01.26 05.01.26
_ Max-Zeit 10:20 12:50 09:00 05:44 10:40 23:04 12:58 18:52 13:36 11:04 00:00
Maximum _ 5,3 °C 6,1 °C 1,7 °C 99 % 1026,3 hPa 2,9 l/m² 0,07 h 0,08 h 225 W/m² 48,3 km/h
S (6 Bft)
100,00 %
Durchschnitt _ -0,7 °C -1,1 °C -4,2 °C 93 % 1008,7 hPa #28,6 l/m² #2:56 h #12:38 h 44 W/m² 11,3 km/h (2 Bft) 96,80 %
© 2026 W. Hausmann